sensor_id;sensor_type;location;lat;lon;timestamp;temperature;humidity
9861;DHT22;4969;52.304;4.968;2024-03-08T00:00:58;14.72;61.69
9861;DHT22;4969;52.304;4.968;2024-03-08T00:03:25;13.62;53.14
9861;DHT22;4969;52.304;4.968;2024-03-08T00:05:53;13.12;62.24
9861;DHT22;4969;52.304;4.968;2024-03-08T00:08:20;14.51;59.75
9861;DHT22;4969;52.304;4.968;2024-03-08T00:10:46;14.76;58.86
9861;DHT22;4969;52.304;4.968;2024-03-08T00:13:13;15.02;60.33
9861;DHT22;4969;52.304;4.968;2024-03-08T00:15:40;14.10;59.94
9861;DHT22;4969;52.304;4.968;2024-03-08T00:18:07;13.90;57.92
9861;DHT22;4969;52.304;4.968;2024-03-08T00:20:34;14.35;63.62
9861;DHT22;4969;52.304;4.968;2024-03-08T00:23:02;14.37;56.00
9861;DHT22;4969;52.304;4.968;2024-03-08T00:25:29;15.03;60.15
9861;DHT22;4969;52.304;4.968;2024-03-08T00:27:56;14.85;59.21
9861;DHT22;4969;52.304;4.968;2024-03-08T00:30:22;14.05;55.97
9861;DHT22;4969;52.304;4.968;2024-03-08T00:32:50;13.10;59.44
9861;DHT22;4969;52.304;4.968;2024-03-08T00:35:17;12.31;62.03
9861;DHT22;4969;52.304;4.968;2024-03-08T00:37:44;13.17;57.76
9861;DHT22;4969;52.304;4.968;2024-03-08T00:40:13;13.96;63.92
9861;DHT22;4969;52.304;4.968;2024-03-08T00:42:40;13.17;61.11
9861;DHT22;4969;52.304;4.968;2024-03-08T00:45:09;12.10;58.61
9861;DHT22;4969;52.304;4.968;2024-03-08T00:47:36;11.89;59.47
9861;DHT22;4969;52.304;4.968;2024-03-08T00:50:03;12.55;67.72
9861;DHT22;4969;52.304;4.968;2024-03-08T00:52:30;12.96;62.48
9861;DHT22;4969;52.304;4.968;2024-03-08T00:54:57;12.38;64.95
9861;DHT22;4969;52.304;4.968;2024-03-08T00:57:25;12.75;61.86
9861;DHT22;4969;52.304;4.968;2024-03-08T00:59:51;13.06;64.49
9861;DHT22;4969;52.304;4.968;2024-03-08T01:02:18;12.09;57.70
9861;DHT22;4969;52.304;4.968;2024-03-08T01:04:45;12.21;62.90
9861;DHT22;4969;52.304;4.968;2024-03-08T01:07:12;13.13;62.87
9861;DHT22;4969;52.304;4.968;2024-03-08T01:09:39;14.23;63.38
9861;DHT22;4969;52.304;4.968;2024-03-08T01:12:06;13.97;60.64
9861;DHT22;4969;52.304;4.968;2024-03-08T01:14:34;13.97;60.82
9861;DHT22;4969;52.304;4.968;2024-03-08T01:17:01;13.81;62.57
9861;DHT22;4969;52.304;4.968;2024-03-08T01:19:28;14.58;59.93
9861;DHT22;4969;52.304;4.968;2024-03-08T01:21:54;14.52;60.15
9861;DHT22;4969;52.304;4.968;2024-03-08T01:24:22;13.35;59.16
9861;DHT22;4969;52.304;4.968;2024-03-08T01:26:48;13.65;59.09
9861;DHT22;4969;52.304;4.968;2024-03-08T01:29:15;13.44;61.19
9861;DHT22;4969;52.304;4.968;2024-03-08T01:31:43;13.55;54.96
9861;DHT22;4969;52.304;4.968;2024-03-08T01:34:10;13.62;61.16
9861;DHT22;4969;52.304;4.968;2024-03-08T01:36:37;13.51;59.92
9861;DHT22;4969;52.304;4.968;2024-03-08T01:39:03;13.30;64.22
9861;DHT22;4969;52.304;4.968;2024-03-08T01:41:33;13.93;60.27
9861;DHT22;4969;52.304;4.968;2024-03-08T01:44:01;13.75;62.01
9861;DHT22;4969;52.304;4.968;2024-03-08T01:46:28;13.44;59.43
9861;DHT22;4969;52.304;4.968;2024-03-08T01:48:56;13.93;59.75
9861;DHT22;4969;52.304;4.968;2024-03-08T01:51:23;13.45;62.84
9861;DHT22;4969;52.304;4.968;2024-03-08T01:53:50;13.38;60.66
9861;DHT22;4969;52.304;4.968;2024-03-08T01:56:17;12.21;58.13
9861;DHT22;4969;52.304;4.968;2024-03-08T01:58:44;12.54;58.95
9861;DHT22;4969;52.304;4.968;2024-03-08T02:01:12;13.19;61.05
9861;DHT22;4969;52.304;4.968;2024-03-08T02:03:40;13.44;59.24
9861;DHT22;4969;52.304;4.968;2024-03-08T02:06:11;14.09;61.08
9861;DHT22;4969;52.304;4.968;2024-03-08T02:08:39;13.97;60.44
9861;DHT22;4969;52.304;4.968;2024-03-08T02:11:08;14.82;58.55
9861;DHT22;4969;52.304;4.968;2024-03-08T02:13:35;13.62;57.54
9861;DHT22;4969;52.304;4.968;2024-03-08T02:16:02;14.27;61.05
9861;DHT22;4969;52.304;4.968;2024-03-08T02:18:30;14.20;58.84
9861;DHT22;4969;52.304;4.968;2024-03-08T02:21:02;14.38;61.22
9861;DHT22;4969;52.304;4.968;2024-03-08T02:23:29;14.30;58.82
9861;DHT22;4969;52.304;4.968;2024-03-08T02:25:56;13.68;58.59
9861;DHT22;4969;52.304;4.968;2024-03-08T02:28:24;14.10;60.03
9861;DHT22;4969;52.304;4.968;2024-03-08T02:30:52;13.27;61.25
9861;DHT22;4969;52.304;4.968;2024-03-08T02:33:20;12.96;61.76
9861;DHT22;4969;52.304;4.968;2024-03-08T02:35:47;12.80;56.96
9861;DHT22;4969;52.304;4.968;2024-03-08T02:38:15;13.07;58.33
9861;DHT22;4969;52.304;4.968;2024-03-08T02:40:44;12.89;60.21
9861;DHT22;4969;52.304;4.968;2024-03-08T02:43:11;12.51;56.55
9861;DHT22;4969;52.304;4.968;2024-03-08T02:45:38;13.66;62.99
9861;DHT22;4969;52.304;4.968;2024-03-08T02:48:05;13.66;63.08
9861;DHT22;4969;52.304;4.968;2024-03-08T02:50:32;13.12;58.81
9861;DHT22;4969;52.304;4.968;2024-03-08T02:53:00;12.65;63.16
9861;DHT22;4969;52.304;4.968;2024-03-08T02:55:28;12.88;57.78
9861;DHT22;4969;52.304;4.968;2024-03-08T02:57:54;13.78;57.35
9861;DHT22;4969;52.304;4.968;2024-03-08T03:00:22;13.16;61.32
9861;DHT22;4969;52.304;4.968;2024-03-08T03:02:49;13.42;63.61
9861;DHT22;4969;52.304;4.968;2024-03-08T03:05:19;13.14;58.15
9861;DHT22;4969;52.304;4.968;2024-03-08T03:07:45;14.10;59.28
9861;DHT22;4969;52.304;4.968;2024-03-08T03:10:13;14.58;59.17
9861;DHT22;4969;52.304;4.968;2024-03-08T03:12:44;14.60;59.82
9861;DHT22;4969;52.304;4.968;2024-03-08T03:15:11;13.09;55.91
9861;DHT22;4969;52.304;4.968;2024-03-08T03:17:38;13.10;59.91
9861;DHT22;4969;52.304;4.968;2024-03-08T03:20:06;12.67;62.77
9861;DHT22;4969;52.304;4.968;2024-03-08T03:22:36;13.20;61.89
9861;DHT22;4969;52.304;4.968;2024-03-08T03:25:04;13.88;56.42
9861;DHT22;4969;52.304;4.968;2024-03-08T03:27:32;14.10;60.49
9861;DHT22;4969;52.304;4.968;2024-03-08T03:30:00;14.47;59.72
9861;DHT22;4969;52.304;4.968;2024-03-08T03:32:46;13.03;61.47
9861;DHT22;4969;52.304;4.968;2024-03-08T03:35:13;13.89;59.86
9861;DHT22;4969;52.304;4.968;2024-03-08T03:37:40;13.72;58.07
9861;DHT22;4969;52.304;4.968;2024-03-08T03:40:09;13.75;57.66
9861;DHT22;4969;52.304;4.968;2024-03-08T03:42:35;13.22;57.21
9861;DHT22;4969;52.304;4.968;2024-03-08T03:45:05;13.17;59.84
9861;DHT22;4969;52.304;4.968;2024-03-08T03:47:32;12.82;59.75
9861;DHT22;4969;52.304;4.968;2024-03-08T03:49:59;12.59;55.61
9861;DHT22;4969;52.304;4.968;2024-03-08T03:52:27;14.07;61.14
9861;DHT22;4969;52.304;4.968;2024-03-08T03:54:54;13.38;61.08
9861;DHT22;4969;52.304;4.968;2024-03-08T03:57:21;13.45;57.00
9861;DHT22;4969;52.304;4.968;2024-03-08T03:59:48;12.83;60.35
9861;DHT22;4969;52.304;4.968;2024-03-08T04:02:17;13.62;60.87
9861;DHT22;4969;52.304;4.968;2024-03-08T04:04:46;13.17;60.70
9861;DHT22;4969;52.304;4.968;2024-03-08T04:07:13;12.95;64.17
9861;DHT22;4969;52.304;4.968;2024-03-08T04:09:39;13.97;60.53
9861;DHT22;4969;52.304;4.968;2024-03-08T04:12:06;13.93;59.09
9861;DHT22;4969;52.304;4.968;2024-03-08T04:14:35;12.14;57.36
9861;DHT22;4969;52.304;4.968;2024-03-08T04:17:01;13.03;62.27
9861;DHT22;4969;52.304;4.968;2024-03-08T04:19:30;13.58;60.43
9861;DHT22;4969;52.304;4.968;2024-03-08T04:21:56;14.18;60.66
9861;DHT22;4969;52.304;4.968;2024-03-08T04:24:23;14.38;58.84
9861;DHT22;4969;52.304;4.968;2024-03-08T04:26:50;13.23;53.41
9861;DHT22;4969;52.304;4.968;2024-03-08T04:29:17;12.97;56.29
9861;DHT22;4969;52.304;4.968;2024-03-08T04:31:44;13.33;56.12
9861;DHT22;4969;52.304;4.968;2024-03-08T04:34:11;13.47;54.33
9861;DHT22;4969;52.304;4.968;2024-03-08T04:36:38;13.24;62.28
9861;DHT22;4969;52.304;4.968;2024-03-08T04:39:05;13.93;61.38
9861;DHT22;4969;52.304;4.968;2024-03-08T04:41:35;13.78;56.86
9861;DHT22;4969;52.304;4.968;2024-03-08T04:44:03;14.40;57.96
9861;DHT22;4969;52.304;4.968;2024-03-08T04:46:30;14.26;54.68
9861;DHT22;4969;52.304;4.968;2024-03-08T04:48:57;13.90;55.11
9861;DHT22;4969;52.304;4.968;2024-03-08T04:51:24;13.09;60.40
9861;DHT22;4969;52.304;4.968;2024-03-08T04:53:52;12.93;62.52
9861;DHT22;4969;52.304;4.968;2024-03-08T04:56:19;13.89;58.61
9861;DHT22;4969;52.304;4.968;2024-03-08T04:58:46;13.78;58.29
9861;DHT22;4969;52.304;4.968;2024-03-08T05:01:13;13.27;55.21
9861;DHT22;4969;52.304;4.968;2024-03-08T05:03:40;13.17;53.78
9861;DHT22;4969;52.304;4.968;2024-03-08T05:06:06;13.10;59.09
9861;DHT22;4969;52.304;4.968;2024-03-08T05:08:33;13.66;54.92
9861;DHT22;4969;52.304;4.968;2024-03-08T05:11:01;13.00;55.21
9861;DHT22;4969;52.304;4.968;2024-03-08T05:13:30;12.30;58.60
9861;DHT22;4969;52.304;4.968;2024-03-08T05:15:57;13.09;61.78
9861;DHT22;4969;52.304;4.968;2024-03-08T05:18:23;12.52;58.61
9861;DHT22;4969;52.304;4.968;2024-03-08T05:20:50;13.09;61.45
9861;DHT22;4969;52.304;4.968;2024-03-08T05:23:17;13.27;59.37
9861;DHT22;4969;52.304;4.968;2024-03-08T05:25:45;12.67;52.03
9861;DHT22;4969;52.304;4.968;2024-03-08T05:28:13;13.16;57.44
9861;DHT22;4969;52.304;4.968;2024-03-08T05:30:40;13.50;58.77
9861;DHT22;4969;52.304;4.968;2024-03-08T05:33:06;13.65;59.09
9861;DHT22;4969;52.304;4.968;2024-03-08T05:35:35;13.55;59.51
9861;DHT22;4969;52.304;4.968;2024-03-08T05:38:02;13.54;60.62
9861;DHT22;4969;52.304;4.968;2024-03-08T05:40:29;13.26;57.33
9861;DHT22;4969;52.304;4.968;2024-03-08T05:42:57;12.73;57.97
9861;DHT22;4969;52.304;4.968;2024-03-08T05:45:25;12.55;59.91
9861;DHT22;4969;52.304;4.968;2024-03-08T05:47:52;13.26;61.95
9861;DHT22;4969;52.304;4.968;2024-03-08T05:50:18;12.80;58.59
9861;DHT22;4969;52.304;4.968;2024-03-08T05:52:45;12.42;61.44
9861;DHT22;4969;52.304;4.968;2024-03-08T05:55:12;13.16;58.78
9861;DHT22;4969;52.304;4.968;2024-03-08T05:57:39;13.31;60.96
9861;DHT22;4969;52.304;4.968;2024-03-08T06:00:08;13.09;56.39
9861;DHT22;4969;52.304;4.968;2024-03-08T06:02:37;12.69;55.05
9861;DHT22;4969;52.304;4.968;2024-03-08T06:05:08;12.99;62.04
9861;DHT22;4969;52.304;4.968;2024-03-08T06:07:35;13.74;57.96
9861;DHT22;4969;52.304;4.968;2024-03-08T06:10:02;13.34;59.07
9861;DHT22;4969;52.304;4.968;2024-03-08T06:12:28;13.05;57.12
9861;DHT22;4969;52.304;4.968;2024-03-08T06:14:58;14.26;53.59
9861;DHT22;4969;52.304;4.968;2024-03-08T06:17:25;13.90;58.54
9861;DHT22;4969;52.304;4.968;2024-03-08T06:19:53;13.51;58.23
9861;DHT22;4969;52.304;4.968;2024-03-08T06:22:20;13.72;59.76
9861;DHT22;4969;52.304;4.968;2024-03-08T06:24:46;13.88;56.80
9861;DHT22;4969;52.304;4.968;2024-03-08T06:27:13;13.95;57.63
9861;DHT22;4969;52.304;4.968;2024-03-08T06:29:40;13.14;53.18
9861;DHT22;4969;52.304;4.968;2024-03-08T06:32:07;13.69;60.78
9861;DHT22;4969;52.304;4.968;2024-03-08T06:34:33;13.07;55.61
9861;DHT22;4969;52.304;4.968;2024-03-08T06:37:02;13.17;58.32
9861;DHT22;4969;52.304;4.968;2024-03-08T06:39:28;13.03;57.78
9861;DHT22;4969;52.304;4.968;2024-03-08T06:41:57;12.86;58.60
9861;DHT22;4969;52.304;4.968;2024-03-08T06:44:23;13.68;59.81
9861;DHT22;4969;52.304;4.968;2024-03-08T06:46:51;13.65;58.23
9861;DHT22;4969;52.304;4.968;2024-03-08T06:49:18;14.18;54.17
9861;DHT22;4969;52.304;4.968;2024-03-08T06:51:44;14.06;55.78
9861;DHT22;4969;52.304;4.968;2024-03-08T06:54:13;14.20;57.40
9861;DHT22;4969;52.304;4.968;2024-03-08T06:56:39;13.12;49.31
9861;DHT22;4969;52.304;4.968;2024-03-08T06:59:06;12.47;58.55
9861;DHT22;4969;52.304;4.968;2024-03-08T07:01:36;12.69;60.10
9861;DHT22;4969;52.304;4.968;2024-03-08T07:04:03;13.14;58.37
9861;DHT22;4969;52.304;4.968;2024-03-08T07:06:31;11.79;54.28
9861;DHT22;4969;52.304;4.968;2024-03-08T07:08:58;13.05;62.01
9861;DHT22;4969;52.304;4.968;2024-03-08T07:11:26;13.74;57.08
9861;DHT22;4969;52.304;4.968;2024-03-08T07:13:53;13.44;59.86
9861;DHT22;4969;52.304;4.968;2024-03-08T07:16:20;13.77;57.80
9861;DHT22;4969;52.304;4.968;2024-03-08T07:18:47;13.59;57.65
9861;DHT22;4969;52.304;4.968;2024-03-08T07:21:17;14.68;57.65
9861;DHT22;4969;52.304;4.968;2024-03-08T07:23:45;15.02;52.38
9861;DHT22;4969;52.304;4.968;2024-03-08T07:26:40;15.47;54.10
9861;DHT22;4969;52.304;4.968;2024-03-08T07:29:06;15.47;55.47
9861;DHT22;4969;52.304;4.968;2024-03-08T07:31:33;14.64;56.74
9861;DHT22;4969;52.304;4.968;2024-03-08T07:34:09;14.48;57.32
9861;DHT22;4969;52.304;4.968;2024-03-08T07:36:36;13.23;54.11
9861;DHT22;4969;52.304;4.968;2024-03-08T07:39:03;12.71;57.63
9861;DHT22;4969;52.304;4.968;2024-03-08T07:41:30;12.36;56.39
9861;DHT22;4969;52.304;4.968;2024-03-08T07:44:00;13.30;57.69
9861;DHT22;4969;52.304;4.968;2024-03-08T07:46:29;13.10;57.52
9861;DHT22;4969;52.304;4.968;2024-03-08T07:48:55;12.48;59.08
9861;DHT22;4969;52.304;4.968;2024-03-08T07:51:22;13.07;63.27
9861;DHT22;4969;52.304;4.968;2024-03-08T07:53:48;12.41;48.80
9861;DHT22;4969;52.304;4.968;2024-03-08T07:56:15;12.75;60.28
9861;DHT22;4969;52.304;4.968;2024-03-08T07:58:43;14.16;54.66
9861;DHT22;4969;52.304;4.968;2024-03-08T08:01:17;14.23;51.63
9861;DHT22;4969;52.304;4.968;2024-03-08T08:03:43;14.03;56.87
9861;DHT22;4969;52.304;4.968;2024-03-08T08:06:10;13.96;56.62
9861;DHT22;4969;52.304;4.968;2024-03-08T08:08:41;13.37;50.77
9861;DHT22;4969;52.304;4.968;2024-03-08T08:11:08;13.07;59.98
9861;DHT22;4969;52.304;4.968;2024-03-08T08:13:37;13.47;56.71
9861;DHT22;4969;52.304;4.968;2024-03-08T08:16:04;13.93;60.35
9861;DHT22;4969;52.304;4.968;2024-03-08T08:18:33;14.07;54.80
9861;DHT22;4969;52.304;4.968;2024-03-08T08:21:01;14.14;54.86
9861;DHT22;4969;52.304;4.968;2024-03-08T08:23:28;13.81;56.68
9861;DHT22;4969;52.304;4.968;2024-03-08T08:25:55;13.57;56.26
9861;DHT22;4969;52.304;4.968;2024-03-08T08:28:21;11.92;49.80
9861;DHT22;4969;52.304;4.968;2024-03-08T08:30:48;13.57;60.25
9861;DHT22;4969;52.304;4.968;2024-03-08T08:33:15;13.28;53.47
9861;DHT22;4969;52.304;4.968;2024-03-08T08:35:43;12.12;55.97
9861;DHT22;4969;52.304;4.968;2024-03-08T08:38:10;12.97;61.72
9861;DHT22;4969;52.304;4.968;2024-03-08T08:40:37;12.80;55.38
9861;DHT22;4969;52.304;4.968;2024-03-08T08:43:03;12.88;53.45
9861;DHT22;4969;52.304;4.968;2024-03-08T08:45:30;14.13;58.46
9861;DHT22;4969;52.304;4.968;2024-03-08T08:47:57;14.98;55.55
9861;DHT22;4969;52.304;4.968;2024-03-08T08:50:26;14.37;59.23
9861;DHT22;4969;52.304;4.968;2024-03-08T08:52:55;13.75;55.11
9861;DHT22;4969;52.304;4.968;2024-03-08T08:55:22;14.06;51.60
9861;DHT22;4969;52.304;4.968;2024-03-08T08:57:50;13.95;52.57
9861;DHT22;4969;52.304;4.968;2024-03-08T09:00:18;14.28;58.45
9861;DHT22;4969;52.304;4.968;2024-03-08T09:02:46;14.14;59.79
9861;DHT22;4969;52.304;4.968;2024-03-08T09:05:13;14.83;56.50
9861;DHT22;4969;52.304;4.968;2024-03-08T09:07:42;16.31;54.17
9861;DHT22;4969;52.304;4.968;2024-03-08T09:10:11;15.81;53.74
9861;DHT22;4969;52.304;4.968;2024-03-08T09:12:39;15.75;55.27
9861;DHT22;4969;52.304;4.968;2024-03-08T09:15:07;15.68;51.37
9861;DHT22;4969;52.304;4.968;2024-03-08T09:17:36;14.99;46.20
9861;DHT22;4969;52.304;4.968;2024-03-08T09:20:06;14.55;54.84
9861;DHT22;4969;52.304;4.968;2024-03-08T09:22:32;14.02;51.11
9861;DHT22;4969;52.304;4.968;2024-03-08T09:24:58;14.67;53.74
9861;DHT22;4969;52.304;4.968;2024-03-08T09:27:26;14.07;54.02
9861;DHT22;4969;52.304;4.968;2024-03-08T09:29:53;14.95;57.63
9861;DHT22;4969;52.304;4.968;2024-03-08T09:32:20;15.89;55.24
9861;DHT22;4969;52.304;4.968;2024-03-08T09:34:48;14.78;52.60
9861;DHT22;4969;52.304;4.968;2024-03-08T09:37:15;15.31;53.45
9861;DHT22;4969;52.304;4.968;2024-03-08T09:39:42;16.33;54.44
9861;DHT22;4969;52.304;4.968;2024-03-08T09:42:10;16.30;53.21
9861;DHT22;4969;52.304;4.968;2024-03-08T09:44:44;16.09;54.94
9861;DHT22;4969;52.304;4.968;2024-03-08T09:47:13;14.98;53.27
9861;DHT22;4969;52.304;4.968;2024-03-08T09:49:40;15.43;58.15
9861;DHT22;4969;52.304;4.968;2024-03-08T09:52:07;15.68;54.97
9861;DHT22;4969;52.304;4.968;2024-03-08T09:54:35;14.57;57.42
9861;DHT22;4969;52.304;4.968;2024-03-08T09:57:03;15.34;52.33
9861;DHT22;4969;52.304;4.968;2024-03-08T09:59:30;15.31;50.32
9861;DHT22;4969;52.304;4.968;2024-03-08T10:02:14;15.86;58.08
9861;DHT22;4969;52.304;4.968;2024-03-08T10:04:41;16.36;52.67
9861;DHT22;4969;52.304;4.968;2024-03-08T10:07:08;15.53;58.23
9861;DHT22;4969;52.304;4.968;2024-03-08T10:09:35;15.62;55.24
9861;DHT22;4969;52.304;4.968;2024-03-08T10:12:02;15.96;57.11
9861;DHT22;4969;52.304;4.968;2024-03-08T10:14:29;16.48;48.22
9861;DHT22;4969;52.304;4.968;2024-03-08T10:16:57;16.38;55.27
9861;DHT22;4969;52.304;4.968;2024-03-08T10:19:26;15.61;53.78
9861;DHT22;4969;52.304;4.968;2024-03-08T10:21:55;15.90;58.26
9861;DHT22;4969;52.304;4.968;2024-03-08T10:24:24;15.87;53.96
9861;DHT22;4969;52.304;4.968;2024-03-08T10:26:53;15.50;55.32
9861;DHT22;4969;52.304;4.968;2024-03-08T10:29:21;16.14;57.04
9861;DHT22;4969;52.304;4.968;2024-03-08T10:31:48;16.31;52.54
9861;DHT22;4969;52.304;4.968;2024-03-08T10:34:15;15.38;49.78
9861;DHT22;4969;52.304;4.968;2024-03-08T10:36:44;13.88;45.59
9861;DHT22;4969;52.304;4.968;2024-03-08T10:39:17;14.51;55.59
9861;DHT22;4969;52.304;4.968;2024-03-08T10:41:48;14.69;49.83
9861;DHT22;4969;52.304;4.968;2024-03-08T10:44:32;15.45;53.39
9861;DHT22;4969;52.304;4.968;2024-03-08T10:47:02;15.83;56.93
9861;DHT22;4969;52.304;4.968;2024-03-08T10:49:32;15.81;55.88
9861;DHT22;4969;52.304;4.968;2024-03-08T10:52:05;16.10;55.88
9861;DHT22;4969;52.304;4.968;2024-03-08T10:54:33;15.72;56.86
9861;DHT22;4969;52.304;4.968;2024-03-08T10:57:03;14.68;52.41
9861;DHT22;4969;52.304;4.968;2024-03-08T10:59:34;15.69;56.69
9861;DHT22;4969;52.304;4.968;2024-03-08T11:02:01;16.09;55.77
9861;DHT22;4969;52.304;4.968;2024-03-08T11:04:30;15.30;51.26
9861;DHT22;4969;52.304;4.968;2024-03-08T11:07:00;15.82;47.22
9861;DHT22;4969;52.304;4.968;2024-03-08T11:09:35;15.00;47.94
9861;DHT22;4969;52.304;4.968;2024-03-08T11:12:22;15.13;45.60
9861;DHT22;4969;52.304;4.968;2024-03-08T11:14:51;14.42;59.04
9861;DHT22;4969;52.304;4.968;2024-03-08T11:17:21;16.14;55.54
9861;DHT22;4969;52.304;4.968;2024-03-08T11:19:49;15.38;53.55
9861;DHT22;4969;52.304;4.968;2024-03-08T11:22:22;14.57;48.52
9861;DHT22;4969;52.304;4.968;2024-03-08T11:24:53;15.03;58.86
9861;DHT22;4969;52.304;4.968;2024-03-08T11:27:20;15.65;55.66
9861;DHT22;4969;52.304;4.968;2024-03-08T11:29:59;15.43;57.57
9861;DHT22;4969;52.304;4.968;2024-03-08T11:32:35;14.12;53.79
9861;DHT22;4969;52.304;4.968;2024-03-08T11:35:06;13.90;48.68
9861;DHT22;4969;52.304;4.968;2024-03-08T11:37:34;15.16;55.37
9861;DHT22;4969;52.304;4.968;2024-03-08T11:40:11;16.08;47.79
9861;DHT22;4969;52.304;4.968;2024-03-08T11:42:44;15.81;54.49
9861;DHT22;4969;52.304;4.968;2024-03-08T11:45:12;15.59;47.77
9861;DHT22;4969;52.304;4.968;2024-03-08T11:47:39;15.17;58.12
9861;DHT22;4969;52.304;4.968;2024-03-08T11:50:06;15.85;56.88
9861;DHT22;4969;52.304;4.968;2024-03-08T11:52:37;16.37;50.16
9861;DHT22;4969;52.304;4.968;2024-03-08T11:55:06;16.45;53.87
9861;DHT22;4969;52.304;4.968;2024-03-08T11:57:33;16.45;54.32
9861;DHT22;4969;52.304;4.968;2024-03-08T12:00:00;16.40;52.92
9861;DHT22;4969;52.304;4.968;2024-03-08T12:02:32;16.02;55.27
9861;DHT22;4969;52.304;4.968;2024-03-08T12:05:01;15.20;45.38
9861;DHT22;4969;52.304;4.968;2024-03-08T12:07:28;14.34;49.61
9861;DHT22;4969;52.304;4.968;2024-03-08T12:10:18;13.72;46.03
9861;DHT22;4969;52.304;4.968;2024-03-08T12:12:45;14.13;47.78
9861;DHT22;4969;52.304;4.968;2024-03-08T12:15:13;13.58;56.37
9861;DHT22;4969;52.304;4.968;2024-03-08T12:17:40;14.41;49.29
9861;DHT22;4969;52.304;4.968;2024-03-08T12:20:14;15.55;55.56
9861;DHT22;4969;52.304;4.968;2024-03-08T12:22:42;16.38;54.88
9861;DHT22;4969;52.304;4.968;2024-03-08T12:25:10;15.85;51.15
9861;DHT22;4969;52.304;4.968;2024-03-08T12:27:39;15.86;55.74
9861;DHT22;4969;52.304;4.968;2024-03-08T12:30:26;16.21;53.90
9861;DHT22;4969;52.304;4.968;2024-03-08T12:32:55;15.09;55.75
9861;DHT22;4969;52.304;4.968;2024-03-08T12:35:24;15.90;55.86
9861;DHT22;4969;52.304;4.968;2024-03-08T12:37:52;16.42;54.99
9861;DHT22;4969;52.304;4.968;2024-03-08T12:40:19;16.85;54.19
9861;DHT22;4969;52.304;4.968;2024-03-08T12:42:54;17.14;53.57
9861;DHT22;4969;52.304;4.968;2024-03-08T12:45:21;16.36;46.69
9861;DHT22;4969;52.304;4.968;2024-03-08T12:47:49;16.75;50.04
9861;DHT22;4969;52.304;4.968;2024-03-08T12:50:16;16.61;50.34
9861;DHT22;4969;52.304;4.968;2024-03-08T12:52:43;16.62;52.41
9861;DHT22;4969;52.304;4.968;2024-03-08T12:55:10;16.80;53.72
9861;DHT22;4969;52.304;4.968;2024-03-08T12:57:38;16.91;53.28
9861;DHT22;4969;52.304;4.968;2024-03-08T13:00:07;15.99;49.20
9861;DHT22;4969;52.304;4.968;2024-03-08T13:02:39;16.61;52.53
9861;DHT22;4969;52.304;4.968;2024-03-08T13:05:06;16.28;52.54
9861;DHT22;4969;52.304;4.968;2024-03-08T13:07:35;16.77;53.02
9861;DHT22;4969;52.304;4.968;2024-03-08T13:10:03;16.75;49.35
9861;DHT22;4969;52.304;4.968;2024-03-08T13:12:30;16.99;54.16
9861;DHT22;4969;52.304;4.968;2024-03-08T13:14:56;16.69;51.77
9861;DHT22;4969;52.304;4.968;2024-03-08T13:17:24;16.85;51.21
9861;DHT22;4969;52.304;4.968;2024-03-08T13:19:52;17.38;49.80
9861;DHT22;4969;52.304;4.968;2024-03-08T13:22:22;17.03;49.79
9861;DHT22;4969;52.304;4.968;2024-03-08T13:24:50;17.13;51.01
9861;DHT22;4969;52.304;4.968;2024-03-08T13:27:17;17.09;53.58
9861;DHT22;4969;52.304;4.968;2024-03-08T13:29:47;17.23;53.08
9861;DHT22;4969;52.304;4.968;2024-03-08T13:32:15;17.07;52.06
9861;DHT22;4969;52.304;4.968;2024-03-08T13:34:44;16.93;50.68
9861;DHT22;4969;52.304;4.968;2024-03-08T13:37:10;16.80;53.68
9861;DHT22;4969;52.304;4.968;2024-03-08T13:39:38;17.27;54.01
9861;DHT22;4969;52.304;4.968;2024-03-08T13:42:10;17.52;44.71
9861;DHT22;4969;52.304;4.968;2024-03-08T13:44:39;17.49;43.39
9861;DHT22;4969;52.304;4.968;2024-03-08T13:47:06;17.57;53.02
9861;DHT22;4969;52.304;4.968;2024-03-08T13:49:33;17.69;52.83
9861;DHT22;4969;52.304;4.968;2024-03-08T13:52:01;17.23;51.94
9861;DHT22;4969;52.304;4.968;2024-03-08T13:54:27;17.19;47.61
9861;DHT22;4969;52.304;4.968;2024-03-08T13:56:56;17.41;48.58
9861;DHT22;4969;52.304;4.968;2024-03-08T13:59:23;17.59;52.67
9861;DHT22;4969;52.304;4.968;2024-03-08T14:01:54;17.06;52.21
9861;DHT22;4969;52.304;4.968;2024-03-08T14:04:21;16.68;52.75
9861;DHT22;4969;52.304;4.968;2024-03-08T14:06:49;17.16;52.66
9861;DHT22;4969;52.304;4.968;2024-03-08T14:09:18;17.35;50.85
9861;DHT22;4969;52.304;4.968;2024-03-08T14:11:45;17.79;50.01
9861;DHT22;4969;52.304;4.968;2024-03-08T14:14:12;17.74;52.17
9861;DHT22;4969;52.304;4.968;2024-03-08T14:16:38;17.40;45.28
9861;DHT22;4969;52.304;4.968;2024-03-08T14:19:05;17.44;45.84
9861;DHT22;4969;52.304;4.968;2024-03-08T14:21:32;17.51;50.32
9861;DHT22;4969;52.304;4.968;2024-03-08T14:23:58;17.17;44.44
9861;DHT22;4969;52.304;4.968;2024-03-08T14:26:26;17.34;51.98
9861;DHT22;4969;52.304;4.968;2024-03-08T14:28:53;17.79;52.13
9861;DHT22;4969;52.304;4.968;2024-03-08T14:31:20;17.42;50.46
9861;DHT22;4969;52.304;4.968;2024-03-08T14:33:50;17.64;52.44
9861;DHT22;4969;52.304;4.968;2024-03-08T14:36:16;17.44;48.73
9861;DHT22;4969;52.304;4.968;2024-03-08T14:38:45;17.04;46.96
9861;DHT22;4969;52.304;4.968;2024-03-08T14:41:12;17.40;53.58
9861;DHT22;4969;52.304;4.968;2024-03-08T14:43:42;17.14;47.66
9861;DHT22;4969;52.304;4.968;2024-03-08T14:46:10;17.27;52.93
9861;DHT22;4969;52.304;4.968;2024-03-08T14:48:39;17.35;52.57
9861;DHT22;4969;52.304;4.968;2024-03-08T14:51:06;17.44;53.66
9861;DHT22;4969;52.304;4.968;2024-03-08T14:53:35;17.42;52.25
9861;DHT22;4969;52.304;4.968;2024-03-08T14:56:05;14.54;41.74
9861;DHT22;4969;52.304;4.968;2024-03-08T14:58:32;12.69;46.36
9861;DHT22;4969;52.304;4.968;2024-03-08T15:01:00;12.21;47.84
9861;DHT22;4969;52.304;4.968;2024-03-08T15:03:27;11.82;48.67
9861;DHT22;4969;52.304;4.968;2024-03-08T15:05:54;11.76;50.01
9861;DHT22;4969;52.304;4.968;2024-03-08T15:08:21;12.04;56.98
9861;DHT22;4969;52.304;4.968;2024-03-08T15:10:49;11.69;49.53
9861;DHT22;4969;52.304;4.968;2024-03-08T15:13:19;11.31;50.65
9861;DHT22;4969;52.304;4.968;2024-03-08T15:15:48;11.44;51.01
9861;DHT22;4969;52.304;4.968;2024-03-08T15:18:22;11.34;50.92
9861;DHT22;4969;52.304;4.968;2024-03-08T15:20:51;11.23;50.91
9861;DHT22;4969;52.304;4.968;2024-03-08T15:23:18;11.16;51.93
9861;DHT22;4969;52.304;4.968;2024-03-08T15:25:46;11.20;49.67
9861;DHT22;4969;52.304;4.968;2024-03-08T15:28:14;11.16;50.45
9861;DHT22;4969;52.304;4.968;2024-03-08T15:30:43;11.17;50.35
9861;DHT22;4969;52.304;4.968;2024-03-08T15:33:12;11.03;50.70
9861;DHT22;4969;52.304;4.968;2024-03-08T15:35:42;11.02;51.42
9861;DHT22;4969;52.304;4.968;2024-03-08T15:38:12;10.81;50.81
9861;DHT22;4969;52.304;4.968;2024-03-08T15:40:40;10.68;51.41
9861;DHT22;4969;52.304;4.968;2024-03-08T15:43:07;10.74;51.56
9861;DHT22;4969;52.304;4.968;2024-03-08T15:45:34;10.61;51.70
9861;DHT22;4969;52.304;4.968;2024-03-08T15:48:02;10.69;51.35
9861;DHT22;4969;52.304;4.968;2024-03-08T15:50:33;10.61;51.65
9861;DHT22;4969;52.304;4.968;2024-03-08T15:53:01;10.61;52.46
9861;DHT22;4969;52.304;4.968;2024-03-08T15:55:29;10.61;52.26
9861;DHT22;4969;52.304;4.968;2024-03-08T15:57:57;10.75;52.07
9861;DHT22;4969;52.304;4.968;2024-03-08T16:00:25;10.72;51.59
9861;DHT22;4969;52.304;4.968;2024-03-08T16:03:01;10.57;51.47
9861;DHT22;4969;52.304;4.968;2024-03-08T16:05:32;10.52;51.85
9861;DHT22;4969;52.304;4.968;2024-03-08T16:07:58;10.78;52.18